VHHOD OERK-OKKK
Flight info
| Callsign | VHHOD |
|---|---|
| Flight time | 1h 2m |
| Altitude | 25000 |
| Route | ORNIP H976 MUSRI P891 KUNRU |
| Aircraft | SF50/L-BDGRSWY/LB2U2 |
Departure
| Time | 2026-04-29 05:17 |
|---|---|
| Airport | King Khalid International Airport (OERK) |
Arrival
| Time | 2026-04-29 06:20 |
|---|---|
| Airport | Kuwait International Airport (OKKK) |
| Time | Latitude | Longitude | Altitude | Speed | Heading |
|---|---|---|---|---|---|
| 2026-04-29 05:05 | 24.96444 | 46.72137 | 2042 ft | 0 kts | 243° |
| 2026-04-29 05:10 | 24.96447 | 46.72135 | 2042 ft | 3 kts | 39° |
| 2026-04-29 05:10 | 24.96491 | 46.72161 | 2037 ft | 12 kts | 1° |
| 2026-04-29 05:11 | 24.96547 | 46.72116 | 2037 ft | 9 kts | 261° |
| 2026-04-29 05:11 | 24.96525 | 46.72070 | 2041 ft | 3 kts | 244° |
| 2026-04-29 05:11 | 24.96518 | 46.72044 | 2039 ft | 5 kts | 253° |
| 2026-04-29 05:11 | 24.96503 | 46.72003 | 2038 ft | 7 kts | 242° |
| 2026-04-29 05:12 | 24.96474 | 46.71949 | 2042 ft | 10 kts | 241° |
| 2026-04-29 05:12 | 24.96431 | 46.71870 | 2039 ft | 14 kts | 234° |
| 2026-04-29 05:12 | 24.96346 | 46.71844 | 2037 ft | 16 kts | 149° |
| 2026-04-29 05:12 | 24.96242 | 46.71911 | 2037 ft | 19 kts | 153° |
| 2026-04-29 05:13 | 24.96120 | 46.71984 | 2037 ft | 21 kts | 150° |
| 2026-04-29 05:13 | 24.95989 | 46.72062 | 2037 ft | 20 kts | 152° |
| 2026-04-29 05:13 | 24.95876 | 46.72129 | 2037 ft | 17 kts | 152° |
| 2026-04-29 05:13 | 24.95785 | 46.72197 | 2037 ft | 16 kts | 143° |
| 2026-04-29 05:14 | 24.95681 | 46.72265 | 2037 ft | 18 kts | 153° |
| 2026-04-29 05:14 | 24.95551 | 46.72338 | 2037 ft | 23 kts | 150° |
| 2026-04-29 05:14 | 24.95398 | 46.72434 | 2037 ft | 28 kts | 150° |
| 2026-04-29 05:14 | 24.95255 | 46.72500 | 2037 ft | 16 kts | 201° |
| 2026-04-29 05:15 | 24.95200 | 46.72418 | 2037 ft | 11 kts | 240° |
| 2026-04-29 05:15 | 24.95138 | 46.72312 | 2039 ft | 22 kts | 239° |
| 2026-04-29 05:15 | 24.95068 | 46.72172 | 2036 ft | 19 kts | 242° |
| 2026-04-29 05:15 | 24.95011 | 46.72058 | 2033 ft | 16 kts | 237° |
| 2026-04-29 05:16 | 24.94963 | 46.71932 | 2029 ft | 17 kts | 296° |
| 2026-04-29 05:16 | 24.95200 | 46.71770 | 2032 ft | 73 kts | 329° |
| 2026-04-29 05:16 | 24.95804 | 46.71405 | 2130 ft | 113 kts | 329° |
| 2026-04-29 05:16 | 24.96523 | 46.70946 | 2302 ft | 128 kts | 328° |
| 2026-04-29 05:17 | 24.97328 | 46.70387 | 2399 ft | 144 kts | 325° |
| 2026-04-29 05:17 | 24.98130 | 46.69841 | 2823 ft | 133 kts | 330° |
| 2026-04-29 05:17 | 24.99010 | 46.69509 | 3196 ft | 135 kts | 346° |
| 2026-04-29 05:17 | 24.99918 | 46.69249 | 3570 ft | 135 kts | 343° |
| 2026-04-29 05:18 | 25.00817 | 46.68936 | 3939 ft | 137 kts | 340° |
| 2026-04-29 05:18 | 25.01780 | 46.68566 | 4305 ft | 155 kts | 340° |
| 2026-04-29 05:18 | 25.02846 | 46.68145 | 4701 ft | 170 kts | 339° |
| 2026-04-29 05:18 | 25.03972 | 46.67695 | 5088 ft | 178 kts | 339° |
| 2026-04-29 05:19 | 25.05148 | 46.67226 | 5471 ft | 181 kts | 339° |
| 2026-04-29 05:19 | 25.06336 | 46.66751 | 5847 ft | 182 kts | 339° |
| 2026-04-29 05:19 | 25.07530 | 46.66275 | 6221 ft | 184 kts | 339° |
| 2026-04-29 05:19 | 25.08769 | 46.65795 | 6598 ft | 193 kts | 344° |
| 2026-04-29 05:20 | 25.10128 | 46.65769 | 6973 ft | 201 kts | 10° |
| 2026-04-29 05:20 | 25.11481 | 46.66249 | 7356 ft | 208 kts | 19° |
| 2026-04-29 05:20 | 25.12872 | 46.66781 | 7737 ft | 215 kts | 18° |
| 2026-04-29 05:20 | 25.14308 | 46.67315 | 8022 ft | 227 kts | 18° |
| 2026-04-29 05:21 | 25.15847 | 46.67894 | 8281 ft | 240 kts | 18° |
| 2026-04-29 05:21 | 25.17464 | 46.68501 | 8539 ft | 250 kts | 18° |
| 2026-04-29 05:21 | 25.19198 | 46.68834 | 8785 ft | 256 kts | 360° |
| 2026-04-29 05:21 | 25.20966 | 46.68535 | 9036 ft | 259 kts | 343° |
| 2026-04-29 05:22 | 25.22709 | 46.67964 | 9286 ft | 263 kts | 343° |
| 2026-04-29 05:22 | 25.24454 | 46.67417 | 9535 ft | 265 kts | 343° |
| 2026-04-29 05:22 | 25.26239 | 46.66860 | 9787 ft | 268 kts | 343° |
| 2026-04-29 05:22 | 25.28034 | 46.66297 | 10037 ft | 268 kts | 344° |
| 2026-04-29 05:23 | 25.29885 | 46.66077 | 10276 ft | 270 kts | 2° |
| 2026-04-29 05:23 | 25.31730 | 46.66454 | 10520 ft | 271 kts | 18° |
| 2026-04-29 05:23 | 25.33414 | 46.67397 | 10763 ft | 273 kts | 34° |
| 2026-04-29 05:23 | 25.34791 | 46.68832 | 11005 ft | 274 kts | 51° |
| 2026-04-29 05:24 | 25.35869 | 46.70557 | 11255 ft | 273 kts | 56° |
| 2026-04-29 05:24 | 25.36926 | 46.72267 | 11503 ft | 273 kts | 56° |
| 2026-04-29 05:24 | 25.38002 | 46.73997 | 11753 ft | 273 kts | 56° |
| 2026-04-29 05:24 | 25.39076 | 46.75730 | 12002 ft | 273 kts | 54° |
| 2026-04-29 05:25 | 25.40248 | 46.77370 | 12251 ft | 272 kts | 51° |
| 2026-04-29 05:25 | 25.41428 | 46.79012 | 12501 ft | 273 kts | 52° |
| 2026-04-29 05:25 | 25.42603 | 46.80659 | 12742 ft | 273 kts | 52° |
| 2026-04-29 05:25 | 25.43781 | 46.82306 | 13001 ft | 273 kts | 52° |
| 2026-04-29 05:26 | 25.44945 | 46.83934 | 13363 ft | 269 kts | 52° |
| 2026-04-29 05:26 | 25.46096 | 46.85546 | 13737 ft | 265 kts | 52° |
| 2026-04-29 05:26 | 25.47236 | 46.87140 | 14108 ft | 263 kts | 52° |
| 2026-04-29 05:26 | 25.48358 | 46.88712 | 14483 ft | 252 kts | 52° |
| 2026-04-29 05:27 | 25.49387 | 46.90155 | 14845 ft | 226 kts | 52° |
| 2026-04-29 05:27 | 25.51222 | 46.92727 | 15557 ft | 210 kts | 52° |
| 2026-04-29 05:27 | 25.52134 | 46.94004 | 15920 ft | 213 kts | 52° |
| 2026-04-29 05:28 | 25.53054 | 46.95297 | 16306 ft | 215 kts | 52° |
| 2026-04-29 05:28 | 25.53987 | 46.96603 | 16683 ft | 217 kts | 52° |
| 2026-04-29 05:28 | 25.54925 | 46.97916 | 17058 ft | 218 kts | 52° |
| 2026-04-29 05:28 | 25.55865 | 46.99237 | 17433 ft | 219 kts | 52° |
| 2026-04-29 05:29 | 25.56814 | 47.00566 | 17808 ft | 221 kts | 52° |
| 2026-04-29 05:29 | 25.57767 | 47.01905 | 18183 ft | 222 kts | 52° |
| 2026-04-29 05:29 | 25.58715 | 47.03234 | 18553 ft | 223 kts | 52° |
| 2026-04-29 05:29 | 25.59679 | 47.04590 | 18929 ft | 225 kts | 52° |
| 2026-04-29 05:30 | 25.60651 | 47.05953 | 19304 ft | 226 kts | 52° |
| 2026-04-29 05:30 | 25.61628 | 47.07325 | 19679 ft | 228 kts | 52° |
| 2026-04-29 05:30 | 25.62609 | 47.08706 | 20054 ft | 229 kts | 52° |
| 2026-04-29 05:30 | 25.63599 | 47.10095 | 20429 ft | 230 kts | 52° |
| 2026-04-29 05:31 | 25.64592 | 47.11494 | 20804 ft | 231 kts | 52° |
| 2026-04-29 05:31 | 25.65588 | 47.12897 | 21179 ft | 232 kts | 52° |
| 2026-04-29 05:31 | 25.66585 | 47.14300 | 21551 ft | 232 kts | 52° |
| 2026-04-29 05:31 | 25.67566 | 47.15684 | 21921 ft | 231 kts | 52° |
| 2026-04-29 05:32 | 25.68559 | 47.17082 | 22295 ft | 231 kts | 52° |
| 2026-04-29 05:32 | 25.69550 | 47.18479 | 22667 ft | 231 kts | 52° |
| 2026-04-29 05:32 | 25.70541 | 47.19878 | 23041 ft | 230 kts | 52° |
| 2026-04-29 05:32 | 25.71531 | 47.21272 | 23414 ft | 230 kts | 52° |
| 2026-04-29 05:33 | 25.72516 | 47.22664 | 23787 ft | 229 kts | 52° |
| 2026-04-29 05:33 | 25.73503 | 47.24055 | 24160 ft | 229 kts | 52° |
| 2026-04-29 05:33 | 25.74487 | 47.25446 | 24533 ft | 229 kts | 52° |
| 2026-04-29 05:33 | 25.75457 | 47.26815 | 24900 ft | 229 kts | 52° |
| 2026-04-29 05:34 | 25.76464 | 47.28230 | 24998 ft | 241 kts | 50° |
| 2026-04-29 05:34 | 25.77768 | 47.29463 | 25006 ft | 253 kts | 34° |
| 2026-04-29 05:34 | 25.79253 | 47.30597 | 25012 ft | 265 kts | 35° |
| 2026-04-29 05:34 | 25.80774 | 47.31817 | 25005 ft | 275 kts | 36° |
| 2026-04-29 05:35 | 25.82346 | 47.33073 | 25015 ft | 282 kts | 35° |
| 2026-04-29 05:35 | 25.83963 | 47.34348 | 25010 ft | 288 kts | 35° |
| 2026-04-29 05:35 | 25.85606 | 47.35649 | 25010 ft | 292 kts | 35° |
| 2026-04-29 05:35 | 25.87271 | 47.36969 | 25012 ft | 296 kts | 35° |
| 2026-04-29 05:36 | 25.88954 | 47.38303 | 25009 ft | 299 kts | 35° |
| 2026-04-29 05:36 | 25.90630 | 47.39632 | 25011 ft | 301 kts | 35° |
| 2026-04-29 05:36 | 25.92343 | 47.40991 | 25010 ft | 304 kts | 35° |
| 2026-04-29 05:36 | 25.94066 | 47.42358 | 25009 ft | 306 kts | 35° |
| 2026-04-29 05:37 | 25.95800 | 47.43736 | 25013 ft | 307 kts | 36° |
| 2026-04-29 05:37 | 25.97547 | 47.45122 | 25013 ft | 309 kts | 35° |
| 2026-04-29 05:37 | 25.99300 | 47.46513 | 25007 ft | 310 kts | 36° |
| 2026-04-29 05:37 | 26.01060 | 47.47913 | 25008 ft | 312 kts | 36° |
| 2026-04-29 05:38 | 26.02826 | 47.49316 | 25011 ft | 313 kts | 35° |
| 2026-04-29 05:38 | 26.04574 | 47.50707 | 25008 ft | 314 kts | 36° |
| 2026-04-29 05:38 | 26.06349 | 47.52119 | 25009 ft | 314 kts | 35° |
| 2026-04-29 05:38 | 26.08129 | 47.53534 | 25013 ft | 315 kts | 36° |
| 2026-04-29 05:39 | 26.09914 | 47.54957 | 25007 ft | 316 kts | 36° |
| 2026-04-29 05:39 | 26.11704 | 47.56382 | 25011 ft | 316 kts | 35° |
| 2026-04-29 05:39 | 26.13492 | 47.57805 | 25010 ft | 317 kts | 36° |
| 2026-04-29 05:39 | 26.15287 | 47.59237 | 25013 ft | 317 kts | 36° |
| 2026-04-29 05:40 | 26.17082 | 47.60668 | 25013 ft | 318 kts | 36° |
| 2026-04-29 05:40 | 26.18879 | 47.62100 | 25003 ft | 318 kts | 36° |
| 2026-04-29 05:40 | 26.20652 | 47.63516 | 25007 ft | 318 kts | 36° |
| 2026-04-29 05:40 | 26.22451 | 47.64951 | 25013 ft | 318 kts | 36° |
| 2026-04-29 05:41 | 26.24250 | 47.66387 | 25011 ft | 318 kts | 36° |
| 2026-04-29 05:41 | 26.26050 | 47.67827 | 25011 ft | 318 kts | 36° |
| 2026-04-29 05:41 | 26.27874 | 47.69211 | 25008 ft | 318 kts | 30° |
| 2026-04-29 05:41 | 26.29915 | 47.70156 | 25002 ft | 317 kts | 19° |
| 2026-04-29 05:42 | 26.31990 | 47.70981 | 25003 ft | 317 kts | 20° |
| 2026-04-29 05:42 | 26.34061 | 47.71835 | 25003 ft | 317 kts | 20° |
| 2026-04-29 05:42 | 26.36133 | 47.72684 | 25003 ft | 318 kts | 20° |
| 2026-04-29 05:42 | 26.38183 | 47.73514 | 25003 ft | 318 kts | 20° |
| 2026-04-29 05:43 | 26.40257 | 47.74357 | 25003 ft | 318 kts | 20° |
| 2026-04-29 05:43 | 26.42342 | 47.75208 | 25003 ft | 318 kts | 20° |
| 2026-04-29 05:43 | 26.44423 | 47.76055 | 25003 ft | 318 kts | 20° |
| 2026-04-29 05:43 | 26.46505 | 47.76904 | 25003 ft | 319 kts | 20° |
| 2026-04-29 05:44 | 26.48586 | 47.77753 | 25003 ft | 319 kts | 20° |
| 2026-04-29 05:44 | 26.50670 | 47.78602 | 25003 ft | 319 kts | 20° |
| 2026-04-29 05:44 | 26.52751 | 47.79452 | 25003 ft | 319 kts | 20° |
| 2026-04-29 05:44 | 26.54804 | 47.80291 | 25003 ft | 318 kts | 20° |
| 2026-04-29 05:45 | 26.56886 | 47.81140 | 25003 ft | 318 kts | 20° |
| 2026-04-29 05:45 | 26.58965 | 47.81992 | 25003 ft | 318 kts | 20° |
| 2026-04-29 05:45 | 26.61043 | 47.82842 | 25003 ft | 318 kts | 20° |
| 2026-04-29 05:45 | 26.63124 | 47.83692 | 25003 ft | 318 kts | 20° |
| 2026-04-29 05:46 | 26.65203 | 47.84544 | 25003 ft | 318 kts | 20° |
| 2026-04-29 05:46 | 26.67283 | 47.85395 | 25003 ft | 318 kts | 20° |
| 2026-04-29 05:46 | 26.69361 | 47.86246 | 25003 ft | 318 kts | 20° |
| 2026-04-29 05:46 | 26.71439 | 47.87098 | 25003 ft | 318 kts | 20° |
| 2026-04-29 05:47 | 26.73492 | 47.87939 | 25003 ft | 318 kts | 20° |
| 2026-04-29 05:47 | 26.75611 | 47.88623 | 24998 ft | 316 kts | 12° |
| 2026-04-29 05:47 | 26.77760 | 47.89158 | 24999 ft | 317 kts | 12° |
| 2026-04-29 05:47 | 26.79908 | 47.89714 | 24999 ft | 317 kts | 13° |
| 2026-04-29 05:48 | 26.82057 | 47.90281 | 24999 ft | 317 kts | 13° |
| 2026-04-29 05:48 | 26.84206 | 47.90840 | 24995 ft | 318 kts | 13° |
| 2026-04-29 05:48 | 26.86362 | 47.91399 | 24999 ft | 318 kts | 13° |
| 2026-04-29 05:48 | 26.88486 | 47.91952 | 24999 ft | 318 kts | 13° |
| 2026-04-29 05:49 | 26.90639 | 47.92511 | 24999 ft | 318 kts | 13° |
| 2026-04-29 05:49 | 26.92796 | 47.93074 | 24999 ft | 318 kts | 13° |
| 2026-04-29 05:49 | 26.94951 | 47.93635 | 24999 ft | 318 kts | 13° |
| 2026-04-29 05:49 | 26.97111 | 47.94197 | 24999 ft | 318 kts | 13° |
| 2026-04-29 05:50 | 26.99269 | 47.94760 | 24999 ft | 318 kts | 13° |
| 2026-04-29 05:50 | 27.01427 | 47.95323 | 24995 ft | 318 kts | 13° |
| 2026-04-29 05:50 | 27.03585 | 47.95886 | 24999 ft | 318 kts | 13° |
| 2026-04-29 05:50 | 27.05717 | 47.96405 | 24995 ft | 317 kts | 8° |
| 2026-04-29 05:51 | 27.07912 | 47.96557 | 24996 ft | 316 kts | 2° |
| 2026-04-29 05:51 | 27.10112 | 47.96685 | 24999 ft | 316 kts | 3° |
| 2026-04-29 05:51 | 27.12311 | 47.96840 | 24999 ft | 317 kts | 3° |
| 2026-04-29 05:51 | 27.14513 | 47.96981 | 24995 ft | 317 kts | 2° |
| 2026-04-29 05:52 | 27.16716 | 47.97114 | 24999 ft | 317 kts | 2° |
| 2026-04-29 05:52 | 27.18921 | 47.97254 | 24999 ft | 317 kts | 3° |
| 2026-04-29 05:52 | 27.21126 | 47.97397 | 24997 ft | 318 kts | 3° |
| 2026-04-29 05:52 | 27.23333 | 47.97535 | 24999 ft | 318 kts | 3° |
| 2026-04-29 05:53 | 27.25512 | 47.97672 | 24995 ft | 318 kts | 3° |
| 2026-04-29 05:53 | 27.27720 | 47.97814 | 24997 ft | 318 kts | 3° |
| 2026-04-29 05:53 | 27.29932 | 47.97953 | 24994 ft | 318 kts | 3° |
| 2026-04-29 05:53 | 27.32143 | 47.98094 | 24997 ft | 318 kts | 3° |
| 2026-04-29 05:54 | 27.34352 | 47.98235 | 24999 ft | 318 kts | 3° |
| 2026-04-29 05:54 | 27.36561 | 47.98391 | 24995 ft | 317 kts | 5° |
| 2026-04-29 05:54 | 27.38744 | 47.98742 | 24992 ft | 317 kts | 8° |
| 2026-04-29 05:54 | 27.40925 | 47.99122 | 24994 ft | 317 kts | 8° |
| 2026-04-29 05:55 | 27.43079 | 47.99483 | 24996 ft | 317 kts | 8° |
| 2026-04-29 05:55 | 27.45266 | 47.99841 | 24996 ft | 318 kts | 8° |
| 2026-04-29 05:55 | 27.47452 | 48.00205 | 24997 ft | 318 kts | 8° |
| 2026-04-29 05:55 | 27.49641 | 48.00570 | 24997 ft | 318 kts | 8° |
| 2026-04-29 05:56 | 27.51830 | 48.00933 | 24997 ft | 318 kts | 8° |
| 2026-04-29 05:56 | 27.54017 | 48.01297 | 24991 ft | 318 kts | 8° |
| 2026-04-29 05:56 | 27.56208 | 48.01662 | 24997 ft | 318 kts | 8° |
| 2026-04-29 05:56 | 27.58399 | 48.02027 | 24993 ft | 318 kts | 8° |
| 2026-04-29 05:57 | 27.60588 | 48.02392 | 24997 ft | 318 kts | 8° |
| 2026-04-29 05:57 | 27.62750 | 48.02753 | 24994 ft | 318 kts | 8° |
| 2026-04-29 05:57 | 27.64941 | 48.03117 | 24997 ft | 318 kts | 8° |
| 2026-04-29 05:57 | 27.67134 | 48.03485 | 24997 ft | 318 kts | 8° |
| 2026-04-29 05:58 | 27.69325 | 48.03849 | 24998 ft | 318 kts | 8° |
| 2026-04-29 05:58 | 27.71515 | 48.04214 | 24994 ft | 318 kts | 8° |
| 2026-04-29 05:58 | 27.73706 | 48.04577 | 24997 ft | 318 kts | 8° |
| 2026-04-29 05:58 | 27.75894 | 48.04940 | 24997 ft | 318 kts | 8° |
| 2026-04-29 05:59 | 27.78055 | 48.05300 | 24994 ft | 318 kts | 8° |
| 2026-04-29 05:59 | 27.80242 | 48.05663 | 24994 ft | 318 kts | 8° |
| 2026-04-29 05:59 | 27.82429 | 48.06028 | 24994 ft | 318 kts | 8° |
| 2026-04-29 05:59 | 27.84615 | 48.06394 | 24959 ft | 316 kts | 8° |
| 2026-04-29 06:00 | 27.86772 | 48.06754 | 24655 ft | 311 kts | 8° |
| 2026-04-29 06:00 | 27.88898 | 48.07111 | 24288 ft | 308 kts | 8° |
| 2026-04-29 06:00 | 27.91008 | 48.07465 | 23915 ft | 306 kts | 8° |
| 2026-04-29 06:00 | 27.93109 | 48.07816 | 23536 ft | 305 kts | 8° |
| 2026-04-29 06:01 | 27.95213 | 48.08169 | 23168 ft | 306 kts | 8° |
| 2026-04-29 06:01 | 27.97293 | 48.08519 | 22798 ft | 307 kts | 8° |
| 2026-04-29 06:01 | 27.99406 | 48.08872 | 22423 ft | 307 kts | 8° |
| 2026-04-29 06:01 | 28.01525 | 48.09227 | 22045 ft | 308 kts | 8° |
| 2026-04-29 06:02 | 28.03642 | 48.09584 | 21668 ft | 308 kts | 8° |
| 2026-04-29 06:02 | 28.05767 | 48.09940 | 21290 ft | 309 kts | 8° |
| 2026-04-29 06:02 | 28.07894 | 48.10298 | 20912 ft | 309 kts | 8° |
| 2026-04-29 06:02 | 28.10025 | 48.10655 | 20532 ft | 310 kts | 8° |
| 2026-04-29 06:03 | 28.12158 | 48.11015 | 20152 ft | 310 kts | 8° |
| 2026-04-29 06:03 | 28.14039 | 48.11332 | 19818 ft | 311 kts | 8° |
| 2026-04-29 06:03 | 28.16149 | 48.11684 | 19442 ft | 311 kts | 8° |
| 2026-04-29 06:03 | 28.18292 | 48.12046 | 19056 ft | 311 kts | 8° |
| 2026-04-29 06:04 | 28.20436 | 48.12406 | 18679 ft | 312 kts | 8° |
| 2026-04-29 06:04 | 28.22587 | 48.12767 | 18296 ft | 312 kts | 8° |
| 2026-04-29 06:04 | 28.24737 | 48.13130 | 17914 ft | 313 kts | 8° |
| 2026-04-29 06:04 | 28.26892 | 48.13494 | 17531 ft | 313 kts | 8° |
| 2026-04-29 06:05 | 28.29051 | 48.13856 | 17146 ft | 314 kts | 8° |
| 2026-04-29 06:05 | 28.31212 | 48.14221 | 16762 ft | 314 kts | 8° |
| 2026-04-29 06:05 | 28.33347 | 48.14581 | 16382 ft | 315 kts | 8° |
| 2026-04-29 06:05 | 28.35516 | 48.14946 | 15996 ft | 315 kts | 8° |
| 2026-04-29 06:06 | 28.37686 | 48.15314 | 15609 ft | 315 kts | 8° |
| 2026-04-29 06:06 | 28.39861 | 48.15680 | 15222 ft | 316 kts | 8° |
| 2026-04-29 06:06 | 28.42037 | 48.16048 | 14834 ft | 316 kts | 8° |
| 2026-04-29 06:06 | 28.44204 | 48.16416 | 14450 ft | 314 kts | 8° |
| 2026-04-29 06:07 | 28.46358 | 48.16781 | 14064 ft | 312 kts | 8° |
| 2026-04-29 06:07 | 28.48498 | 48.17142 | 13685 ft | 310 kts | 8° |
| 2026-04-29 06:07 | 28.50597 | 48.17498 | 13312 ft | 308 kts | 8° |
| 2026-04-29 06:07 | 28.52713 | 48.17857 | 12933 ft | 306 kts | 8° |
| 2026-04-29 06:08 | 28.54830 | 48.17927 | 12554 ft | 304 kts | 354° |
| 2026-04-29 06:08 | 28.56921 | 48.17594 | 12189 ft | 303 kts | 352° |
| 2026-04-29 06:08 | 28.59006 | 48.17284 | 11820 ft | 301 kts | 352° |
| 2026-04-29 06:08 | 28.61081 | 48.16986 | 11451 ft | 300 kts | 352° |
| 2026-04-29 06:09 | 28.63140 | 48.16681 | 11087 ft | 296 kts | 352° |
| 2026-04-29 06:09 | 28.65145 | 48.16379 | 10731 ft | 283 kts | 352° |
| 2026-04-29 06:09 | 28.67027 | 48.16094 | 10395 ft | 274 kts | 352° |
| 2026-04-29 06:09 | 28.68904 | 48.15816 | 10063 ft | 271 kts | 352° |
| 2026-04-29 06:10 | 28.70766 | 48.15540 | 9735 ft | 269 kts | 352° |
| 2026-04-29 06:10 | 28.72615 | 48.15262 | 9407 ft | 268 kts | 352° |
| 2026-04-29 06:10 | 28.74458 | 48.14985 | 9080 ft | 266 kts | 352° |
| 2026-04-29 06:10 | 28.76290 | 48.14711 | 8755 ft | 265 kts | 352° |
| 2026-04-29 06:11 | 28.78114 | 48.14439 | 8464 ft | 264 kts | 352° |
| 2026-04-29 06:11 | 28.79931 | 48.14167 | 8162 ft | 263 kts | 352° |
| 2026-04-29 06:11 | 28.81717 | 48.13899 | 7843 ft | 262 kts | 352° |
| 2026-04-29 06:11 | 28.83516 | 48.13630 | 7523 ft | 260 kts | 352° |
| 2026-04-29 06:12 | 28.85310 | 48.13361 | 7211 ft | 259 kts | 352° |
| 2026-04-29 06:12 | 28.87092 | 48.13093 | 6896 ft | 258 kts | 352° |
| 2026-04-29 06:12 | 28.88868 | 48.12826 | 6581 ft | 257 kts | 352° |
| 2026-04-29 06:12 | 28.90634 | 48.12562 | 6267 ft | 255 kts | 352° |
| 2026-04-29 06:13 | 28.92203 | 48.12326 | 5988 ft | 254 kts | 352° |
| 2026-04-29 06:13 | 28.93990 | 48.12059 | 5674 ft | 252 kts | 352° |
| 2026-04-29 06:13 | 28.95709 | 48.11799 | 5366 ft | 245 kts | 352° |
| 2026-04-29 06:13 | 28.97325 | 48.11367 | 5068 ft | 241 kts | 337° |
| 2026-04-29 06:14 | 28.98792 | 48.10476 | 4780 ft | 238 kts | 330° |
| 2026-04-29 06:14 | 29.00244 | 48.09568 | 4494 ft | 238 kts | 331° |
| 2026-04-29 06:14 | 29.01689 | 48.08662 | 4199 ft | 236 kts | 330° |
| 2026-04-29 06:14 | 29.03134 | 48.07774 | 3912 ft | 235 kts | 331° |
| 2026-04-29 06:15 | 29.04561 | 48.06886 | 3627 ft | 229 kts | 330° |
| 2026-04-29 06:15 | 29.05920 | 48.06029 | 3356 ft | 218 kts | 330° |
| 2026-04-29 06:15 | 29.07230 | 48.05207 | 3087 ft | 213 kts | 330° |
| 2026-04-29 06:15 | 29.08523 | 48.04404 | 2833 ft | 210 kts | 331° |
| 2026-04-29 06:16 | 29.09845 | 48.03706 | 2639 ft | 210 kts | 335° |
| 2026-04-29 06:16 | 29.11154 | 48.03016 | 2365 ft | 210 kts | 333° |
| 2026-04-29 06:16 | 29.12466 | 48.02309 | 2089 ft | 204 kts | 335° |
| 2026-04-29 06:16 | 29.13695 | 48.01670 | 1837 ft | 179 kts | 334° |
| 2026-04-29 06:17 | 29.14739 | 48.01098 | 1607 ft | 156 kts | 334° |
| 2026-04-29 06:17 | 29.15698 | 48.00602 | 1410 ft | 148 kts | 334° |
| 2026-04-29 06:17 | 29.16611 | 48.00101 | 1213 ft | 144 kts | 334° |
| 2026-04-29 06:17 | 29.17522 | 47.99631 | 1024 ft | 144 kts | 334° |
| 2026-04-29 06:18 | 29.18424 | 47.99136 | 833 ft | 144 kts | 334° |
| 2026-04-29 06:18 | 29.19321 | 47.98672 | 645 ft | 143 kts | 334° |
| 2026-04-29 06:18 | 29.20140 | 47.98225 | 469 ft | 119 kts | 334° |
| 2026-04-29 06:18 | 29.20847 | 47.97852 | 322 ft | 107 kts | 333° |
| 2026-04-29 06:19 | 29.21509 | 47.97501 | 193 ft | 103 kts | 334° |
| 2026-04-29 06:19 | 29.22077 | 47.97201 | 161 ft | 75 kts | 333° |
| 2026-04-29 06:19 | 29.22495 | 47.96983 | 156 ft | 63 kts | 335° |
| 2026-04-29 06:19 | 29.22882 | 47.96775 | 156 ft | 58 kts | 335° |
| 2026-04-29 06:20 | 29.23077 | 47.96686 | 156 ft | 10 kts | 23° |
| 2026-04-29 06:20 | 29.23124 | 47.96784 | 159 ft | 19 kts | 63° |
| 2026-04-29 06:20 | 29.23188 | 47.96927 | 161 ft | 20 kts | 60° |
| 2026-04-29 06:20 | 29.23247 | 47.97063 | 163 ft | 19 kts | 66° |
| 2026-04-29 06:21 | 29.23332 | 47.97110 | 163 ft | 14 kts | 345° |
| 2026-04-29 06:21 | 29.23340 | 47.97108 | 163 ft | 0 kts | 346° |
| 2026-04-29 06:22 | 29.23355 | 47.97101 | 163 ft | 10 kts | 334° |
| 2026-04-29 06:23 | 29.23462 | 47.97042 | 163 ft | 22 kts | 334° |
| 2026-04-29 06:23 | 29.23607 | 47.96961 | 163 ft | 19 kts | 319° |
| 2026-04-29 06:23 | 29.23610 | 47.96898 | 163 ft | 13 kts | 259° |
| 2026-04-29 06:23 | 29.23635 | 47.96861 | 163 ft | 4 kts | 331° |
| 2026-04-29 06:24 | 29.23658 | 47.96849 | 163 ft | 0 kts | 335° |